Latest Weather Observations for Dalby

IDQ60801

Issued at 10:05 pm EST Monday 21 April 2014 (issued every 30 minutes, with the page automatically refreshed every 10 minutes)

About weather observations | Map of weather stations | Latest weather observations for QLD | Other Formats
Station Details ID: 041522 Name: DALBY AIRPORT Lat: -27.16 Lon: 151.26 Height: 343.9 m
Data from the previous 72 hours. | See also: Recent months at Dalby
Date/Time
EST
Temp
°C
App
Temp
°C
Dew
Point
Rel
Hum
%
Delta-T
°C
Wind Press
QNH
hPa
Press
MSL
hPa
Rain
since 9 am
mm
Dir
 
Spd
km/h
Gust
km/h
Spd
kts
Gust
kts
21/10:00pm 16.6 14.4 10.7 68 3.2 NE 13 15 7 8 1020.5 1019.3 0.0
21/09:30pm 16.0 14.4 10.1 68 3.1 N 9 11 5 6 1020.4 - 0.0
21/09:00pm 16.6 15.4 10.2 66 3.4 ENE 7 7 4 4 1020.3 1019.1 0.0
21/08:30pm 17.4 16.1 10.1 62 3.9 ENE 7 7 4 4 1020.2 - 0.0
21/08:00pm 17.7 17.3 9.6 59 4.3 N 2 7 1 4 1020.0 1018.8 0.0
21/07:30pm 18.7 16.4 8.9 53 5.2 NE 11 15 6 8 1019.6 - 0.0
21/07:00pm 20.1 18.4 8.4 47 6.2 NE 7 11 4 6 1019.5 1018.3 0.0
21/06:30pm 19.8 17.6 7.9 46 6.2 NW 9 11 5 6 1019.1 - 0.0
21/06:00pm 23.0 20.7 7.5 37 8.2 N 9 11 5 6 1018.7 1017.5 0.0
21/05:30pm 25.0 22.7 7.6 33 9.3 N 9 11 5 6 1018.4 - 0.0
21/05:00pm 26.3 24.5 7.8 31 10.0 N 7 13 4 7 1018.3 1017.0 0.0
21/04:30pm 27.0 24.3 7.5 29 10.6 NE 11 15 6 8 1018.0 - 0.0
21/04:00pm 27.5 25.5 6.3 26 11.3 E 6 9 3 5 1017.9 1016.6 0.0
21/03:30pm 27.4 25.3 6.8 27 11.1 NNE 7 11 4 6 1017.7 - 0.0
21/03:00pm 27.1 25.4 6.0 26 11.1 ESE 4 9 2 5 1017.9 1016.6 0.0
21/02:30pm 27.6 25.3 7.5 28 10.9 WNW 9 15 5 8 1018.2 - 0.0
21/02:00pm 27.5 24.8 7.4 28 10.9 WNW 11 22 6 12 1018.3 1017.0 0.0
21/01:30pm 27.4 24.8 9.3 32 10.1 W 13 20 7 11 1018.6 - 0.0
21/01:00pm 26.9 24.3 9.3 33 9.8 WNW 13 20 7 11 1018.9 1017.7 0.0
21/12:30pm 26.9 25.7 10.2 35 9.5 W 7 20 4 11 1019.6 - 0.0
21/12:00pm 26.2 22.8 9.1 34 9.5 NNW 17 26 9 14 1020.0 1018.8 0.0
21/11:30am 25.7 22.6 10.3 38 8.7 N 17 28 9 15 1020.5 - 0.0
21/11:00am 25.4 21.8 10.4 39 8.5 N 20 30 11 16 1021.1 1019.9 0.0
21/10:30am 25.0 21.3 11.6 43 7.7 N 22 32 12 17 1021.3 - 0.0
21/10:00am 24.6 21.0 11.9 45 7.3 NNW 22 28 12 15 1021.5 1020.3 0.0
21/09:30am 23.5 19.6 12.2 49 6.5 N 24 32 13 17 1021.5 - 0.0
21/09:00am 23.0 18.6 11.7 49 6.4 N 26 33 14 18 1021.5 1020.3 0.0
21/08:30am 21.9 18.0 12.2 54 5.6 N 24 32 13 17 1021.4 - 0.0
21/08:16am 21.2 16.6 12.3 57 5.1 N 28 32 15 17 1021.4 - 0.0
21/08:00am 19.6 19.3 13.3 67 3.6 NNW 7 11 4 6 1021.4 1020.2 0.0
21/07:30am 15.8 16.1 11.0 73 2.6 CALM 0 0 0 0 1021.1 - 0.0
21/07:00am 12.8 12.9 10.3 85 1.3 CALM 0 0 0 0 1020.7 1019.5 0.0
21/06:30am 10.8 9.3 8.4 85 1.2 WSW 6 7 3 4 1020.4 - 0.0
21/06:00am 10.4 8.8 7.8 84 1.3 SW 6 7 3 4 1019.9 1018.7 0.0
21/05:30am 11.1 9.4 8.3 83 1.4 WSW 7 9 4 5 1019.6 - 0.0
21/05:00am 11.5 11.2 8.5 82 1.5 CALM 0 6 0 3 1019.4 1018.2 0.0
21/04:30am 11.7 10.1 8.6 81 1.6 SW 7 9 4 5 1019.0 - 0.0
21/04:00am 13.7 12.2 9.2 74 2.3 ENE 7 11 4 6 1018.5 1017.2 0.0
21/03:30am 13.1 10.8 7.5 69 2.8 NE 9 11 5 6 1018.3 - 0.0
21/03:00am 14.9 13.4 9.1 68 3.0 ENE 7 9 4 5 1018.3 1017.0 0.0
21/02:30am 14.3 12.4 8.9 70 2.8 E 9 11 5 6 1018.2 - 0.0
21/02:00am 15.2 13.9 10.0 71 2.8 NE 7 9 4 5 1018.3 1017.0 0.0
21/01:30am 14.9 14.0 10.5 75 2.4 N 6 7 3 4 1018.4 - 0.0
21/01:00am 13.8 12.6 9.5 75 2.2 NNE 6 7 3 4 1018.5 1017.2 0.0
21/12:30am 14.4 11.9 9.8 74 2.4 NNE 13 15 7 8 1018.6 - 0.0
21/12:00am 13.4 10.9 8.3 71 2.6 NNE 11 15 6 8 1018.7 1017.5 0.0
 
Date/Time
EST
Temp
°C
App
Temp
°C
Dew
Point
Rel
Hum
%
Delta-T
°C
Wind Press
QNH
hPa
Press
MSL
hPa
Rain
since 9 am
mm
Dir
 
Spd
km/h
Gust
km/h
Spd
kts
Gust
kts
20/11:30pm 12.8 10.1 7.5 70 2.6 NE 11 13 6 7 1018.6 - 0.0
20/11:00pm 12.9 9.9 7.6 70 2.6 E 13 19 7 10 1018.9 1017.7 0.0
20/10:30pm 13.3 11.3 7.1 66 3.1 E 7 11 4 6 1018.8 - 0.0
20/10:00pm 13.5 12.5 7.3 66 3.1 NE 2 6 1 3 1018.8 1017.6 0.0
20/09:30pm 13.7 10.7 7.7 67 3.0 ENE 13 15 7 8 1018.8 - 0.0
20/09:00pm 14.0 10.9 7.3 64 3.3 ENE 13 15 7 8 1018.6 1017.4 0.0
20/08:30pm 14.9 11.7 6.7 58 4.1 ENE 13 15 7 8 1018.5 - 0.0
20/08:00pm 16.6 13.7 6.4 51 5.1 NE 11 11 6 6 1018.3 1017.0 0.0
20/07:30pm 16.9 15.0 7.5 54 4.8 E 7 9 4 5 1017.9 - 0.0
20/07:00pm 16.5 13.8 7.2 54 4.7 ENE 11 13 6 7 1017.6 1016.4 0.0
20/06:30pm 17.7 15.3 5.3 44 6.1 ENE 7 11 4 6 1017.3 - 0.0
20/06:00pm 21.2 20.1 5.1 35 8.1 CALM 0 0 0 0 1017.0 1015.8 0.0
20/05:30pm 23.1 21.2 6.8 35 8.5 ESE 6 7 3 4 1016.8 - 0.0
20/05:00pm 24.1 21.9 7.7 35 8.8 ESE 9 11 5 6 1016.5 1015.3 0.0
20/04:30pm 25.6 22.9 3.5 24 11.1 S 7 13 4 7 1016.4 - 0.0
20/04:00pm 25.7 22.4 4.8 26 10.7 SE 11 20 6 11 1016.2 1015.0 0.0
20/03:30pm 26.3 22.9 4.1 24 11.3 SE 11 17 6 9 1016.0 - 0.0
20/03:00pm 25.9 22.7 4.9 26 10.8 SSE 11 17 6 9 1015.9 1014.6 0.0
20/02:30pm 26.7 24.0 3.9 23 11.6 W 7 17 4 9 1016.2 - 0.0
20/02:00pm 26.4 22.7 4.2 24 11.3 SW 13 20 7 11 1016.4 1015.2 0.0
20/01:30pm 26.4 23.3 5.4 26 10.9 NW 11 15 6 8 1016.5 - 0.0
20/01:00pm 25.8 22.1 4.3 25 10.9 SSW 13 19 7 10 1017.0 1015.8 0.0
20/12:30pm 25.0 22.1 4.7 27 10.4 SSE 9 17 5 9 1017.4 - 0.0
20/12:00pm 24.9 22.2 5.7 29 10.0 ESE 9 17 5 9 1017.9 1016.6 0.0
20/11:30am 24.7 21.7 3.9 26 10.4 SW 9 20 5 11 1018.4 - 0.0
20/11:00am 25.1 22.6 4.8 27 10.4 NW 7 26 4 14 1018.7 1017.5 0.0
20/10:30am 24.2 23.3 6.0 31 9.5 CALM 0 7 0 4 1019.2 - 0.0
20/10:00am 22.6 21.3 7.6 38 7.9 W 4 9 2 5 1019.3 1018.1 0.0
20/09:30am 21.1 19.3 8.0 43 6.9 NW 7 11 4 6 1019.3 - 0.0
20/09:00am 19.6 18.6 8.9 50 5.7 N 4 7 2 4 1019.2 1018.0 0.0
20/08:30am 17.8 17.7 9.4 58 4.5 CALM 0 0 0 0 1019.0 - 0.0
20/08:00am 14.7 13.7 7.5 62 3.6 SE 2 7 1 4 1018.8 1017.6 0.0
20/07:30am 12.8 11.7 8.3 74 2.3 S 4 7 2 4 1018.5 - 0.0
20/07:00am 10.8 9.2 8.2 84 1.3 SSW 6 7 3 4 1018.3 1017.0 0.0
20/06:30am 8.9 7.0 6.7 86 1.0 SE 6 9 3 5 1017.9 - 0.0
20/06:00am 8.5 6.0 6.5 87 0.9 E 9 13 5 7 1017.3 1016.1 0.0
20/05:30am 8.5 5.6 6.5 87 0.9 ESE 11 11 6 6 1017.0 - 0.0
20/05:00am 9.1 6.2 6.7 85 1.1 SE 11 13 6 7 1016.6 1015.4 0.0
20/04:30am 9.3 6.9 6.9 85 1.1 SE 9 13 5 7 1016.5 - 0.0
20/04:00am 10.1 8.1 7.0 81 1.5 SE 7 11 4 6 1016.3 1015.1 0.0
20/03:30am 9.7 6.9 6.8 82 1.4 ESE 11 13 6 7 1016.0 - 0.0
20/03:00am 10.6 8.0 7.7 82 1.4 ESE 11 15 6 8 1016.2 1015.0 0.0
20/02:30am 10.1 8.1 7.0 81 1.5 E 7 9 4 5 1016.2 - 0.0
20/02:00am 11.0 9.0 7.1 77 1.9 E 7 11 4 6 1016.4 1015.2 0.0
20/01:30am 10.9 7.7 7.0 77 1.9 ENE 13 13 7 7 1016.5 - 0.0
20/01:00am 11.3 8.5 7.0 75 2.1 ENE 11 13 6 7 1016.6 1015.4 0.0
20/12:30am 11.1 8.7 7.0 76 2.0 ENE 9 11 5 6 1016.8 - 0.0
20/12:00am 11.7 9.0 7.2 74 2.2 ENE 11 13 6 7 1017.0 1015.8 0.0
 
Date/Time
EST
Temp
°C
App
Temp
°C
Dew
Point
Rel
Hum
%
Delta-T
°C
Wind Press
QNH
hPa
Press
MSL
hPa
Rain
since 9 am
mm
Dir
 
Spd
km/h
Gust
km/h
Spd
kts
Gust
kts
19/11:30pm 12.2 9.2 7.5 73 2.3 ENE 13 15 7 8 1017.2 - 0.0
19/11:00pm 12.1 8.6 7.2 72 2.4 ENE 15 17 8 9 1017.2 1016.0 0.0
19/10:30pm 12.2 8.7 7.1 71 2.5 ENE 15 17 8 9 1017.3 - 0.0
19/10:00pm 12.1 9.3 7.0 71 2.5 ENE 11 15 6 8 1017.4 1016.2 0.0
19/09:30pm 13.1 12.4 6.9 66 3.0 CALM 0 0 0 0 1017.3 - 0.0
19/09:00pm 16.0 15.2 6.7 54 4.6 CALM 0 0 0 0 1017.2 1016.0 0.0
19/08:30pm 17.8 15.6 6.0 46 5.9 SSW 7 9 4 5 1017.0 - 0.0
19/08:00pm 18.7 15.9 5.2 41 6.7 WSW 9 11 5 6 1016.8 1015.6 0.0
19/07:30pm 18.3 15.3 6.2 45 6.1 SW 11 13 6 7 1016.6 - 0.0
19/07:00pm 18.4 15.4 5.9 44 6.2 SW 11 15 6 8 1016.2 1015.0 0.0
19/06:30pm 18.5 15.4 5.4 42 6.5 W 11 13 6 7 1015.6 - 0.0
19/06:00pm 20.1 17.0 5.7 39 7.2 W 11 11 6 6 1015.3 1014.0 0.0
19/05:30pm 22.9 19.6 4.4 30 9.3 W 11 13 6 7 1015.0 - 0.0
19/05:00pm 25.1 20.5 3.7 25 10.7 WSW 17 22 9 12 1014.5 1013.3 0.0
19/04:30pm 26.0 22.1 3.3 23 11.4 WSW 13 20 7 11 1014.4 - 0.0
19/04:00pm 26.2 22.3 3.4 23 11.4 WSW 13 17 7 9 1014.2 1013.0 0.0
19/03:30pm 26.2 21.0 3.4 23 11.5 WSW 20 22 11 12 1014.3 - 0.0
19/03:00pm 25.5 21.9 5.1 27 10.5 SSW 13 20 7 11 1014.4 1013.2 0.0
19/02:30pm 25.7 22.4 4.8 26 10.7 WSW 11 19 6 10 1014.6 - 0.0
19/02:00pm 25.3 21.9 6.0 29 10.1 SSW 13 20 7 11 1014.7 1013.5 0.0
19/01:30pm 24.8 22.2 6.1 30 9.8 S 9 15 5 8 1015.0 - 0.0
19/01:00pm 25.2 20.0 3.8 25 10.7 SW 20 32 11 17 1015.6 1014.3 0.0
19/12:30pm 25.0 20.0 4.7 27 10.4 SSW 20 26 11 14 1016.1 - 0.0
19/12:00pm 24.4 20.3 6.2 31 9.5 SSW 17 24 9 13 1016.6 1015.4 0.0
19/11:30am 23.5 19.3 5.9 32 9.1 WSW 17 24 9 13 1017.2 - 0.0
19/11:00am 22.5 19.8 5.4 33 8.7 S 9 17 5 9 1018.0 1016.7 0.0
19/10:30am 22.2 19.5 7.2 38 7.9 SSW 11 17 6 9 1018.3 - 0.0
19/10:00am 21.5 18.7 8.4 43 7.0 SW 13 17 7 9 1018.7 1017.5 0.0
19/09:30am 20.5 17.4 7.2 42 6.9 SW 13 19 7 10 1018.7 - 0.0
19/09:00am 20.2 19.6 7.6 44 6.6 CALM 0 6 0 3 1018.7 1017.5 0.0
19/08:30am 19.1 17.9 8.1 49 5.8 N 4 9 2 5 1018.6 - 0.0
19/08:00am 16.5 14.4 8.2 58 4.3 N 9 11 5 6 1018.6 1017.4 0.0
19/07:30am 13.4 11.8 8.7 73 2.4 NNE 7 9 4 5 1018.5 - 0.0
19/07:00am 10.5 8.6 7.7 83 1.4 ENE 7 9 4 5 1018.3 1017.0 0.0
19/06:30am 8.0 5.7 5.8 86 1.0 E 7 9 4 5 1018.1 - 0.0
19/06:00am 8.0 5.7 5.5 84 1.1 E 7 9 4 5 1018.0 1016.7 0.0
19/05:30am 7.8 5.2 5.9 88 0.9 E 9 15 5 8 1017.5 - 0.0
19/05:00am 8.0 6.3 5.8 86 1.0 NE 4 9 2 5 1017.3 1016.1 0.0
19/04:30am 8.4 7.1 6.2 86 1.0 N 2 7 1 4 1017.2 - 0.0
19/04:00am 8.2 5.2 6.2 87 0.9 N 11 13 6 7 1017.1 1015.9 0.0
19/03:30am 9.2 7.1 6.5 83 1.3 N 7 9 4 5 1017.1 - 0.0
19/03:00am 9.0 6.8 6.3 83 1.3 NNE 7 9 4 5 1017.1 1015.9 0.0
19/02:30am 9.4 7.3 6.7 83 1.3 N 7 9 4 5 1017.3 - 0.0
19/02:00am 9.4 6.5 6.7 83 1.3 N 11 13 6 7 1017.4 1016.2 0.0
19/01:30am 9.7 7.6 6.8 82 1.4 N 7 9 4 5 1017.5 - 0.0
19/01:00am 10.3 8.4 6.6 78 1.8 WNW 6 6 3 3 1017.6 1016.4 0.0
19/12:30am 10.4 8.5 6.7 78 1.8 NW 6 7 3 4 1017.7 - 0.0
19/12:00am 10.8 8.8 6.9 77 1.9 NW 7 9 4 5 1017.7 1016.5 0.0
 
Date/Time
EST
Temp
°C
App
Temp
°C
Dew
Point
Rel
Hum
%
Delta-T
°C
Wind Press
QNH
hPa
Press
MSL
hPa
Rain
since 9 am
mm
Dir
 
Spd
km/h
Gust
km/h
Spd
kts
Gust
kts
18/11:30pm 12.0 10.0 7.3 73 2.3 NW 7 9 4 5 1017.7 - 0.0
18/11:00pm 11.9 9.6 7.4 74 2.2 NNW 9 9 5 5 1017.7 1016.5 0.0
18/10:30pm 12.2 10.4 7.1 71 2.5 NW 6 7 3 4 1017.7 - 0.0

Other Formats:

Comma delimited format used in spreadsheet applications
http://www.bom.gov.au/fwo/IDQ60801/IDQ60801.94542.axf

JavaScript Object Notation format (JSON) in row-major order
http://www.bom.gov.au/fwo/IDQ60801/IDQ60801.94542.json